Latest Weather Observations for Sydney Harbour

IDN60801

Issued at 12:32 pm EST Friday 3 July 2015 (issued every 30 minutes, with the page automatically refreshed every 10 minutes)

About weather observations | Map of weather stations | Latest weather observations for NSW | Other Formats
Station Details ID: 066196 Name: WEDDING CAKE WEST Lat: -33.84 Lon: 151.26 Height: 6.0 m
Data from the previous 72 hours. | See also: Recent months for locations in New South Wales
Date/Time
EST
Temp
°C
App
Temp
°C
Dew
Point
Rel
Hum
%
Delta-T
°C
Wind Press
QNH
hPa
Press
MSL
hPa
Rain
since 9 am
mm
Dir
 
Spd
km/h
Gust
km/h
Spd
kts
Gust
kts
03/12:30pm 13.3 - - - - SSW 28 35 15 19 - - -
03/12:00pm 13.4 - - - - SSW 28 35 15 19 - - -
03/11:30am 13.2 - - - - SW 22 35 12 19 - - -
03/11:00am 11.6 - - - - WSW 20 26 11 14 - - -
03/10:30am 10.7 - - - - WSW 20 28 11 15 - - -
03/10:00am 10.2 - - - - W 24 30 13 16 - - -
03/09:30am 9.6 - - - - WSW 24 32 13 17 - - -
03/09:00am 8.7 - - - - W 28 35 15 19 - - -
03/08:30am 8.5 - - - - W 32 39 17 21 - - -
03/08:00am 8.0 - - - - W 32 39 17 21 - - -
03/07:30am 7.9 - - - - W 33 39 18 21 - - -
03/07:00am 7.7 - - - - W 32 37 17 20 - - -
03/06:30am 8.3 - - - - W 30 37 16 20 - - -
03/06:00am 8.0 - - - - W 30 39 16 21 - - -
03/05:30am 8.6 - - - - WSW 24 32 13 17 - - -
03/05:00am 8.1 - - - - W 33 41 18 22 - - -
03/04:30am 8.2 - - - - W 33 43 18 23 - - -
03/04:00am 8.4 - - - - W 32 41 17 22 - - -
03/03:30am 8.5 - - - - W 30 37 16 20 - - -
03/03:00am 9.1 - - - - WSW 24 33 13 18 - - -
03/02:38am 8.8 - - - - W 32 48 17 26 - - -
03/02:30am 9.5 - - - - WSW 22 28 12 15 - - -
03/02:00am 9.3 - - - - W 32 41 17 22 - - -
03/01:30am 9.4 - - - - W 32 39 17 21 - - -
03/01:00am 10.2 - - - - WSW 24 35 13 19 - - -
03/12:30am 10.4 - - - - WSW 28 35 15 19 - - -
03/12:00am 11.0 - - - - WSW 35 46 19 25 - - -
 
Date/Time
EST
Temp
°C
App
Temp
°C
Dew
Point
Rel
Hum
%
Delta-T
°C
Wind Press
QNH
hPa
Press
MSL
hPa
Rain
since 9 am
mm
Dir
 
Spd
km/h
Gust
km/h
Spd
kts
Gust
kts
02/11:30pm 11.3 - - - - WSW 32 44 17 24 - - -
02/11:00pm 11.7 - - - - SW 39 48 21 26 - - -
02/10:30pm 11.8 - - - - SW 32 43 17 23 - - -
02/10:00pm 12.0 - - - - SW 37 48 20 26 - - -
02/09:30pm 12.1 - - - - SW 35 44 19 24 - - -
02/09:00pm 12.4 - - - - SW 37 46 20 25 - - -
02/08:33pm 12.7 - - - - SW 37 56 20 30 - - -
02/08:30pm 12.7 - - - - SW 37 48 20 26 - - -
02/08:00pm 13.1 - - - - SW 37 44 20 24 - - -
02/07:30pm 13.4 - - - - SW 39 50 21 27 - - -
02/07:00pm 13.3 - - - - SW 33 43 18 23 - - -
02/06:32pm 13.5 - - - - WSW 35 54 19 29 - - -
02/06:30pm 13.5 - - - - WSW 37 54 20 29 - - -
02/06:00pm 13.7 - - - - WSW 44 65 24 35 - - -
02/05:30pm 14.2 - - - - WSW 50 72 27 39 - - -
02/05:00pm 14.8 - - - - WSW 46 70 25 38 - - -
02/04:30pm 15.3 - - - - WSW 39 57 21 31 - - -
02/04:29pm 15.4 - - - - WSW 39 57 21 31 - - -
02/04:00pm 15.4 - - - - WSW 39 54 21 29 - - -
02/03:43pm 15.6 - - - - WSW 37 59 20 32 - - -
02/03:30pm 15.8 - - - - W 33 50 18 27 - - -
02/03:19pm 15.7 - - - - W 35 54 19 29 - - -
02/03:00pm 15.5 - - - - WSW 37 52 20 28 - - -
02/02:36pm 15.3 - - - - W 37 56 20 30 - - -
02/02:30pm 15.3 - - - - W 39 56 21 30 - - -
02/02:00pm 15.4 - - - - W 35 54 19 29 - - -
02/01:30pm 15.2 - - - - W 30 50 16 27 - - -
02/01:22pm 15.0 - - - - W 32 50 17 27 - - -
02/01:00pm 14.6 - - - - W 37 50 20 27 - - -
02/12:31pm 14.1 - - - - W 35 54 19 29 - - -
02/12:30pm 14.2 - - - - W 35 50 19 27 - - -
02/12:00pm 13.7 - - - - WSW 35 54 19 29 - - -
02/11:40am 13.4 - - - - WSW 37 56 20 30 - - -
02/11:30am 13.1 - - - - W 41 56 22 30 - - -
02/11:00am 12.7 - - - - W 43 61 23 33 - - -
02/10:35am 12.3 - - - - W 33 52 18 28 - - -
02/10:30am 11.9 - - - - W 33 44 18 24 - - -
02/10:00am 10.9 - - - - W 37 50 20 27 - - -
02/09:30am 10.3 - - - - W 33 44 18 24 - - -
02/09:00am 9.4 - - - - W 26 39 14 21 - - -
02/08:30am 9.3 - - - - W 22 28 12 15 - - -
02/08:00am 8.7 - - - - WNW 22 28 12 15 - - -
02/07:30am 8.9 - - - - W 17 22 9 12 - - -
02/07:00am 8.7 - - - - W 19 24 10 13 - - -
02/06:30am 8.6 - - - - W 17 24 9 13 - - -
02/06:00am 8.8 - - - - W 17 24 9 13 - - -
02/05:30am 8.8 - - - - W 19 24 10 13 - - -
02/05:00am 8.9 - - - - W 17 28 9 15 - - -
02/04:30am 8.9 - - - - WSW 24 32 13 17 - - -
02/04:00am 9.3 - - - - WSW 30 39 16 21 - - -
02/03:30am 9.1 - - - - WSW 28 37 15 20 - - -
02/03:00am 9.0 - - - - W 20 30 11 16 - - -
02/02:30am 9.3 - - - - W 15 24 8 13 - - -
02/02:00am 9.2 - - - - W 19 28 10 15 - - -
02/01:30am 9.5 - - - - WSW 22 28 12 15 - - -
02/01:00am 9.8 - - - - WSW 24 30 13 16 - - -
02/12:30am 9.7 - - - - WSW 26 33 14 18 - - -
02/12:00am 10.3 - - - - WSW 24 30 13 16 - - -
 
Date/Time
EST
Temp
°C
App
Temp
°C
Dew
Point
Rel
Hum
%
Delta-T
°C
Wind Press
QNH
hPa
Press
MSL
hPa
Rain
since 9 am
mm
Dir
 
Spd
km/h
Gust
km/h
Spd
kts
Gust
kts
01/11:30pm 10.6 - - - - WSW 28 35 15 19 - - -
01/11:00pm 11.3 - - - - WSW 26 33 14 18 - - -
01/10:30pm 11.7 - - - - WSW 20 26 11 14 - - -
01/10:00pm 11.8 - - - - W 17 20 9 11 - - -
01/09:30pm 12.4 - - - - WNW 4 9 2 5 - - -
01/09:00pm 13.1 - - - - WNW 9 11 5 6 - - -
01/08:30pm 13.2 - - - - WNW 11 13 6 7 - - -
01/08:00pm 13.2 - - - - S 7 9 4 5 - - -
01/07:30pm 13.4 - - - - CALM 0 0 0 0 - - -
01/07:00pm 14.0 - - - - CALM 0 0 0 0 - - -
01/06:30pm 14.0 - - - - S 2 9 1 5 - - -
01/06:00pm 14.1 - - - - S 9 11 5 6 - - -
01/05:30pm 14.2 - - - - SSE 13 15 7 8 - - -
01/05:00pm 14.3 - - - - S 15 19 8 10 - - -
01/04:30pm 15.0 - - - - SSW 17 19 9 10 - - -
01/04:00pm 15.5 - - - - SW 17 20 9 11 - - -
01/03:30pm 15.6 - - - - W 9 11 5 6 - - -
01/03:00pm 15.4 - - - - W 11 13 6 7 - - -
01/02:30pm 15.3 - - - - W 9 13 5 7 - - -
01/02:00pm 14.7 - - - - W 11 15 6 8 - - -
01/01:30pm 14.3 - - - - WSW 15 20 8 11 - - -
01/01:00pm 14.3 - - - - WSW 17 20 9 11 - - -
01/12:30pm 13.8 - - - - WSW 15 20 8 11 - - -
01/12:00pm 13.4 - - - - W 17 22 9 12 - - -
01/11:30am 12.9 - - - - W 17 22 9 12 - - -
01/11:00am 12.5 - - - - WSW 20 26 11 14 - - -
01/10:30am 12.0 - - - - W 20 26 11 14 - - -
01/10:00am 12.5 - - - - WSW 17 20 9 11 - - -
01/09:30am 12.3 - - - - W 19 26 10 14 - - -
01/09:00am 12.4 - - - - W 19 26 10 14 - - -
01/08:30am 12.2 - - - - W 19 20 10 11 - - -
01/08:00am 13.1 - - - - SW 20 24 11 13 - - -
01/07:30am 12.7 - - - - SW 13 15 7 8 - - -
01/07:00am 12.8 - - - - SW 17 20 9 11 - - -
01/06:30am 12.7 - - - - SW 19 20 10 11 - - -
01/06:00am 13.1 - - - - SW 19 22 10 12 - - -
01/05:30am 12.9 - - - - SW 20 22 11 12 - - -
01/05:00am 13.3 - - - - W 19 22 10 12 - - -
01/04:30am 14.0 - - - - WSW 17 20 9 11 - - -
01/04:00am 14.1 - - - - W 20 28 11 15 - - -
01/03:30am 14.3 - - - - WSW 19 24 10 13 - - -
01/03:00am 14.7 - - - - WSW 17 22 9 12 - - -
01/02:30am 14.3 - - - - WSW 17 20 9 11 - - -
01/02:00am 14.5 - - - - SW 9 11 5 6 - - -
01/01:30am 14.1 - - - - WSW 9 13 5 7 - - -
01/01:00am 13.8 - - - - W 13 17 7 9 - - -
01/12:30am 13.3 - - - - W 13 15 7 8 - - -
01/12:00am 13.6 - - - - W 9 13 5 7 - - -
 
Date/Time
EST
Temp
°C
App
Temp
°C
Dew
Point
Rel
Hum
%
Delta-T
°C
Wind Press
QNH
hPa
Press
MSL
hPa
Rain
since 9 am
mm
Dir
 
Spd
km/h
Gust
km/h
Spd
kts
Gust
kts
30/11:30pm 14.1 - - - - W 13 17 7 9 - - -
30/11:00pm 14.4 - - - - WNW 11 17 6 9 - - -
30/10:30pm 15.1 - - - - WNW 7 9 4 5 - - -
30/10:00pm 15.4 - - - - WNW 6 7 3 4 - - -
30/09:30pm 15.3 - - - - NW 11 11 6 6 - - -
30/09:00pm 15.8 - - - - NW 9 11 5 6 - - -
30/08:30pm 16.3 - - - - N 13 19 7 10 - - -
30/08:00pm 16.2 - - - - N 13 15 7 8 - - -
30/07:30pm 16.2 - - - - N 9 13 5 7 - - -
30/07:00pm 16.2 - - - - N 9 11 5 6 - - -
30/06:30pm 16.5 - - - - N 13 15 7 8 - - -
30/06:00pm 16.3 - - - - N 9 11 5 6 - - -
30/05:30pm 16.2 - - - - NNE 11 13 6 7 - - -
30/05:00pm 16.6 - - - - NNE 11 11 6 6 - - -
30/04:30pm 16.5 - - - - NNE 9 11 5 6 - - -
30/04:00pm 16.3 - - - - NNE 9 13 5 7 - - -
30/03:30pm 16.2 - - - - NE 9 13 5 7 - - -
30/03:00pm 16.0 - - - - SW 9 13 5 7 - - -
30/02:30pm 16.9 - - - - SW 2 6 1 3 - - -
30/02:00pm 15.2 - - - - SW 7 9 4 5 - - -
30/01:30pm 14.6 - - - - SW 9 11 5 6 - - -
30/01:00pm 14.2 - - - - SW 9 11 5 6 - - -

Other Formats:

Comma delimited format used in spreadsheet applications
http://www.bom.gov.au/fwo/IDN60801/IDN60801.95766.axf

JavaScript Object Notation format (JSON) in row-major order
http://www.bom.gov.au/fwo/IDN60801/IDN60801.95766.json